Time;durP1;ratioP1;P1;durP2;ratioP2;P2;SDS_P1;SDS_P2;PMS_P1;PMS_P2;Temp;Humidity;BMP_temperature;BMP_pressure;BME280_temperature;BME280_humidity;BME280_pressure;Samples;Min_cycle;Max_cycle;Signal;HPM_P1;HPM_P2
2021/07/03 00:00:30;;;;;;;7.53;5.47;;;;;;;18.38;77.00;99517.47;5117683;28;20052;-47
2021/07/03 00:03:16;;;;;;;7.30;5.78;;;;;;;18.32;76.76;99521.34;5116498;28;20062;-47
2021/07/03 00:05:42;;;;;;;7.97;6.72;;;;;;;18.33;77.03;99517.78;5116340;28;20101;-47
2021/07/03 00:08:08;;;;;;;7.72;6.28;;;;;;;18.28;76.86;99525.16;5116429;28;20422;-47
2021/07/03 00:10:34;;;;;;;6.15;5.55;;;;;;;18.28;77.14;99525.16;5117253;28;20096;-47
2021/07/03 00:13:00;;;;;;;9.50;6.22;;;;;;;18.27;76.98;99526.09;5117465;28;20055;-47
2021/07/03 00:15:25;;;;;;;7.97;6.38;;;;;;;18.25;77.20;99521.84;5116294;28;20063;-47
2021/07/03 00:17:52;;;;;;;10.63;6.60;;;;;;;18.22;77.45;99518.41;5117368;28;20061;-47
2021/07/03 00:20:18;;;;;;;7.70;6.97;;;;;;;18.21;77.31;99527.31;5117641;28;20102;-47
2021/07/03 00:22:44;;;;;;;7.85;6.53;;;;;;;17.97;77.64;99487.28;5117299;28;20146;-47
2021/07/03 00:25:10;;;;;;;7.72;6.35;;;;;;;18.16;77.95;99520.59;5116171;28;20114;-47
2021/07/03 00:27:36;;;;;;;7.82;5.88;;;;;;;18.16;78.12;99532.03;5116896;28;20043;-47
2021/07/03 00:30:03;;;;;;;8.90;6.35;;;;;;;18.14;78.27;99538.41;5117192;28;20051;-47
2021/07/03 00:32:28;;;;;;;7.13;6.43;;;;;;;18.10;78.20;99526.25;5117143;28;20067;-47
2021/07/03 00:34:55;;;;;;;6.75;6.00;;;;;;;18.14;78.22;99531.31;5082645;28;20052;-47
2021/07/03 00:37:21;;;;;;;7.95;6.20;;;;;;;18.13;78.22;99529.56;5116988;28;20044;-47
2021/07/03 00:39:46;;;;;;;6.80;5.68;;;;;;;18.14;78.32;99538.41;5115921;28;20314;-47
2021/07/03 00:42:13;;;;;;;7.93;7.03;;;;;;;18.12;78.52;99537.63;5116593;28;20101;-47
2021/07/03 00:44:38;;;;;;;6.45;5.78;;;;;;;18.11;78.36;99533.28;5116090;28;20051;-47
2021/07/03 00:47:09;;;;;;;6.60;5.88;;;;;;;18.08;78.58;99536.97;5116943;28;20055;-47
2021/07/03 00:49:36;;;;;;;8.93;6.18;;;;;;;18.05;78.53;99537.16;5116004;28;20052;-47
2021/07/03 00:52:04;;;;;;;9.30;6.75;;;;;;;18.04;78.44;99531.97;5099181;28;20051;-47
2021/07/03 00:54:30;;;;;;;9.80;5.93;;;;;;;18.01;78.27;99534.78;5099487;28;20051;-47
2021/07/03 00:57:03;;;;;;;6.82;5.63;;;;;;;17.99;78.26;99534.88;5115846;28;20047;-47
2021/07/03 00:59:43;;;;;;;7.82;6.35;;;;;;;17.96;78.31;99543.84;5115968;28;20055;-47
2021/07/03 01:02:17;;;;;;;7.38;6.18;;;;;;;17.90;78.45;99544.19;5116774;28;20051;-47
2021/07/03 01:04:43;;;;;;;6.85;6.15;;;;;;;17.85;78.72;99542.78;5115347;28;20055;-47
2021/07/03 01:07:10;;;;;;;8.57;6.82;;;;;;;17.83;78.71;99548.16;5116703;28;20044;-47
2021/07/03 01:09:36;;;;;;;9.38;7.07;;;;;;;17.77;79.10;99545.03;5099743;28;20067;-47
2021/07/03 01:12:04;;;;;;;7.75;6.63;;;;;;;17.75;79.53;99543.28;5115793;28;20047;-47
2021/07/03 01:14:31;;;;;;;8.52;7.10;;;;;;;17.71;79.77;99540.91;5115452;28;20059;-47
2021/07/03 01:16:57;;;;;;;7.47;6.20;;;;;;;17.69;79.81;99546.31;5116282;28;20096;-47
2021/07/03 01:19:23;;;;;;;7.53;6.32;;;;;;;17.67;79.93;99542.88;5115935;28;20079;-47
2021/07/03 01:21:52;;;;;;;8.75;7.18;;;;;;;17.67;80.21;99540.22;5117047;28;20070;-47
2021/07/03 01:24:19;;;;;;;8.35;7.22;;;;;;;17.60;80.90;99538.88;5116531;28;20395;-47
2021/07/03 01:26:47;;;;;;;9.80;7.13;;;;;;;17.62;80.90;99539.66;5115321;28;20063;-47
2021/07/03 01:29:16;;;;;;;10.05;7.18;;;;;;;17.59;81.23;99537.19;5115360;28;20044;-47
2021/07/03 01:31:43;;;;;;;10.65;7.65;;;;;;;17.57;81.79;99540.88;5115405;28;20055;-47
2021/07/03 01:34:09;;;;;;;9.70;8.43;;;;;;;17.58;81.85;99542.56;5115066;28;20445;-47
2021/07/03 01:36:36;;;;;;;9.10;7.68;;;;;;;17.57;81.69;99536.41;5115396;28;20100;-47
2021/07/03 01:39:05;;;;;;;11.98;7.65;;;;;;;17.58;81.89;99534.63;5115165;28;20112;-47
2021/07/03 01:41:32;;;;;;;8.05;7.18;;;;;;;17.56;82.24;99539.16;5116343;28;20058;-47
2021/07/03 01:43:58;;;;;;;8.90;7.63;;;;;;;17.58;81.95;99532.84;5115156;28;20467;-47
2021/07/03 01:46:24;;;;;;;8.38;7.18;;;;;;;17.53;82.33;99533.09;5115982;28;20043;-47
2021/07/03 01:48:52;;;;;;;10.27;7.82;;;;;;;17.53;82.29;99541.03;5116773;28;20433;-47
2021/07/03 01:51:28;;;;;;;9.60;7.43;;;;;;;17.50;82.63;99543.00;5115431;28;20400;-47
2021/07/03 01:53:54;;;;;;;9.30;7.55;;;;;;;17.49;82.57;99543.97;5117367;28;20087;-47
2021/07/03 01:56:21;;;;;;;13.38;7.82;;;;;;;17.46;82.56;99539.69;5119286;28;20032;-47
2021/07/03 01:58:47;;;;;;;12.35;8.35;;;;;;;17.51;82.61;99552.66;5102027;28;20361;-47
2021/07/03 02:01:29;;;;;;;8.82;8.00;;;;;;;17.47;82.58;99553.78;5104399;28;20043;-47
2021/07/03 02:03:55;;;;;;;11.82;8.70;;;;;;;17.49;82.34;99547.47;5119823;27;20421;-48
2021/07/03 02:06:33;;;;;;;12.80;7.07;;;;;;;17.47;82.37;99538.75;5118814;28;20043;-47
2021/07/03 02:09:00;;;;;;;9.43;8.32;;;;;;;17.48;82.65;99542.25;5118751;28;20434;-47
2021/07/03 02:11:26;;;;;;;16.52;7.30;;;;;;;17.48;82.33;99544.88;5119005;28;20048;-47
2021/07/03 02:14:00;;;;;;;10.85;8.05;;;;;;;17.47;82.49;99544.03;5118694;28;20440;-47
2021/07/03 02:16:34;;;;;;;15.70;8.02;;;;;;;17.46;81.87;99552.94;5118916;28;20048;-47
2021/07/03 02:19:06;;;;;;;8.38;7.20;;;;;;;17.46;81.95;99542.34;5118600;28;20046;-47
2021/07/03 02:21:36;;;;;;;9.35;7.70;;;;;;;17.47;81.82;99553.78;5118569;28;20406;-47
2021/07/03 02:24:02;;;;;;;11.60;7.03;;;;;;;17.46;81.75;99550.28;5119298;28;20052;-48
2021/07/03 02:26:28;;;;;;;11.55;7.20;;;;;;;17.45;81.64;99553.00;5119019;28;20047;-48
2021/07/03 02:28:54;;;;;;;12.30;7.57;;;;;;;17.44;81.47;99546.84;5119277;28;20042;-47
2021/07/03 02:31:26;;;;;;;9.07;6.70;;;;;;;17.43;81.45;99555.75;5118645;28;20138;-48
2021/07/03 02:33:58;;;;;;;9.38;7.13;;;;;;;17.44;81.19;99551.31;5119508;28;20048;-48
2021/07/03 02:36:24;;;;;;;15.93;7.57;;;;;;;17.45;81.10;99555.66;5118450;28;20127;-47
2021/07/03 02:38:50;;;;;;;14.25;8.13;;;;;;;17.44;80.96;99559.25;5119321;28;20043;-47
2021/07/03 02:41:23;;;;;;;11.75;9.10;;;;;;;17.42;80.92;99556.72;5118790;28;20047;-47
2021/07/03 02:43:50;;;;;;;10.68;8.10;;;;;;;17.44;80.67;99562.75;5119234;28;20052;-47
2021/07/03 02:46:16;;;;;;;14.95;7.78;;;;;;;17.44;80.70;99552.16;5118065;28;20330;-48
2021/07/03 02:48:42;;;;;;;11.45;8.85;;;;;;;17.43;80.74;99557.56;5118912;28;20376;-47
2021/07/03 02:51:08;;;;;;;8.75;7.85;;;;;;;17.45;80.65;99558.28;5118226;28;20081;-47
2021/07/03 02:53:34;;;;;;;9.65;8.55;;;;;;;17.44;80.72;99551.31;5118810;28;20352;-47
2021/07/03 02:56:01;;;;;;;11.85;7.65;;;;;;;17.42;80.78;99551.41;5100909;28;20036;-48
2021/07/03 02:58:28;;;;;;;9.25;7.88;;;;;;;17.42;80.70;99550.53;5117831;28;20444;-47
2021/07/03 03:00:56;;;;;;;10.63;7.28;;;;;;;17.44;80.73;99560.09;5101164;28;20078;-47
2021/07/03 03:03:22;;;;;;;11.90;8.00;;;;;;;17.47;80.60;99554.63;5118000;28;20062;-47
2021/07/03 03:05:48;;;;;;;9.60;7.75;;;;;;;17.49;80.56;99550.09;5117984;28;20135;-48
2021/07/03 03:08:14;;;;;;;17.67;9.10;;;;;;;17.50;80.53;99549.16;5100959;28;20070;-47
2021/07/03 03:10:42;;;;;;;13.27;8.60;;;;;;;17.52;80.51;99555.22;5117503;28;20457;-47
2021/07/03 03:13:08;;;;;;;11.48;8.18;;;;;;;17.55;80.44;99548.91;5100560;28;20360;-48
2021/07/03 03:15:34;;;;;;;13.82;8.65;;;;;;;17.57;80.32;99549.66;5118506;28;20134;-47
2021/07/03 03:18:03;;;;;;;11.80;8.43;;;;;;;17.53;80.39;99546.34;5117696;28;20054;-48
2021/07/03 03:20:31;;;;;;;20.42;9.77;;;;;;;17.57;80.36;99549.66;5101052;28;20040;-48
2021/07/03 03:22:57;;;;;;;11.20;8.88;;;;;;;17.61;80.40;99548.53;5117578;28;20058;-48
2021/07/03 03:25:25;;;;;;;8.93;7.75;;;;;;;17.62;80.31;99547.59;5117541;28;20043;-48
2021/07/03 03:27:51;;;;;;;15.15;9.48;;;;;;;17.65;80.39;99546.59;5118353;28;20063;-47
2021/07/03 03:30:17;;;;;;;12.70;8.60;;;;;;;17.68;80.18;99544.59;5118297;28;20051;-47
2021/07/03 03:32:47;;;;;;;14.52;8.40;;;;;;;17.69;80.14;99546.31;5117183;28;20051;-47
2021/07/03 03:35:13;;;;;;;13.45;8.68;;;;;;;17.72;79.85;99542.63;5117921;28;20073;-48
2021/07/03 03:37:41;;;;;;;11.02;9.18;;;;;;;17.71;79.73;99546.19;5116863;28;20464;-48
2021/07/03 03:40:09;;;;;;;14.40;9.48;;;;;;;17.73;79.75;99542.53;5117237;28;20043;-48
2021/07/03 03:42:35;;;;;;;11.45;8.50;;;;;;;17.78;79.68;99547.59;5117342;28;20092;-47
2021/07/03 03:45:05;;;;;;;13.23;8.52;;;;;;;17.82;79.43;99543.81;5099963;28;20047;-48
2021/07/03 03:47:32;;;;;;;14.02;8.88;;;;;;;17.82;79.46;99543.81;5117998;28;20051;-47
2021/07/03 03:49:58;;;;;;;11.27;9.13;;;;;;;17.88;79.26;99550.56;5116781;28;20039;-48
2021/07/03 03:52:24;;;;;;;13.15;9.73;;;;;;;17.86;79.13;99545.34;5117906;28;20066;-48
2021/07/03 03:54:51;;;;;;;12.35;8.45;;;;;;;17.89;79.40;99549.59;5117646;28;20477;-48
2021/07/03 03:57:21;;;;;;;13.20;9.20;;;;;;;17.89;79.19;99545.16;5117871;28;20044;-48
2021/07/03 03:59:49;;;;;;;14.25;9.63;;;;;;;17.90;78.82;99536.25;5117765;28;20044;-48
2021/07/03 04:02:15;;;;;;;12.02;9.55;;;;;;;17.90;78.52;99546.00;5117407;28;20058;-48
2021/07/03 04:04:41;;;;;;;10.50;8.93;;;;;;;17.91;78.79;99545.09;5117184;28;20083;-48
2021/07/03 04:07:07;;;;;;;13.38;10.00;;;;;;;17.92;78.75;99544.97;5116482;28;20313;-48
2021/07/03 04:09:34;;;;;;;14.82;9.13;;;;;;;17.95;78.78;99541.31;5118082;28;20051;-48
2021/07/03 04:11:59;;;;;;;17.27;10.43;;;;;;;17.94;78.68;99540.44;5117211;28;20054;-48
2021/07/03 04:14:25;;;;;;;11.55;9.32;;;;;;;17.96;78.48;99538.53;5099406;28;20077;-48
2021/07/03 04:16:51;;;;;;;15.40;9.15;;;;;;;18.02;78.31;99537.34;5115690;28;20051;-48
2021/07/03 04:19:17;;;;;;;12.98;10.00;;;;;;;18.06;78.12;99532.69;5117500;28;20050;-48
2021/07/03 04:21:43;;;;;;;11.77;8.02;;;;;;;18.09;78.06;99533.38;5116175;28;20361;-48
2021/07/03 04:24:09;;;;;;;14.00;9.25;;;;;;;18.14;77.87;99530.44;5116187;28;20092;-48
2021/07/03 04:26:35;;;;;;;11.18;8.75;;;;;;;18.20;77.49;99536.22;5116916;28;20039;-48
2021/07/03 04:29:01;;;;;;;14.38;9.73;;;;;;;18.19;77.30;99539.81;5116092;28;20040;-48
2021/07/03 04:31:27;;;;;;;12.55;9.10;;;;;;;18.21;77.14;99545.03;5117165;28;20144;-48
2021/07/03 04:33:53;;;;;;;13.45;8.80;;;;;;;18.25;77.10;99543.03;5116552;28;20427;-48
2021/07/03 04:36:18;;;;;;;11.10;9.63;;;;;;;18.28;77.02;99533.09;5117007;28;20039;-48
2021/07/03 04:38:44;;;;;;;11.80;9.00;;;;;;;18.31;76.85;99542.69;5117072;28;20054;-48
2021/07/03 04:41:10;;;;;;;16.50;10.45;;;;;;;18.33;76.69;99532.81;5116102;28;20058;-48
2021/07/03 04:43:36;;;;;;;11.85;9.43;;;;;;;18.34;76.73;99539.84;5116109;28;20429;-48
2021/07/03 04:46:01;;;;;;;13.18;9.75;;;;;;;18.36;76.27;99532.63;5116935;28;20051;-48
2021/07/03 04:48:27;;;;;;;11.50;9.18;;;;;;;18.39;76.48;99530.66;5116897;28;20062;-48
2021/07/03 04:50:53;;;;;;;12.20;8.10;;;;;;;18.43;76.18;99533.97;5115986;28;20052;-48
2021/07/03 04:53:19;;;;;;;14.55;10.13;;;;;;;18.48;75.94;99537.19;5116601;28;20040;-48
2021/07/03 04:55:46;;;;;;;15.93;9.10;;;;;;;18.50;75.65;99535.28;5115839;28;20044;-48
2021/07/03 04:58:13;;;;;;;15.00;9.82;;;;;;;18.55;75.63;99527.88;5099149;28;20047;-48
2021/07/03 05:00:39;;;;;;;12.02;9.27;;;;;;;18.62;75.60;99542.50;5116532;27;20043;-48
2021/07/03 05:03:05;;;;;;;10.07;8.18;;;;;;;18.68;75.41;99535.94;5115545;28;20051;-48
2021/07/03 05:05:31;;;;;;;13.73;9.32;;;;;;;18.78;75.07;99546.84;5116197;28;20070;-48
2021/07/03 05:07:57;;;;;;;12.38;8.25;;;;;;;18.84;74.90;99547.31;5116332;28;20055;-48
2021/07/03 05:10:23;;;;;;;10.77;9.50;;;;;;;18.89;74.20;99534.63;5116299;28;20047;-48
2021/07/03 05:12:48;;;;;;;10.82;8.98;;;;;;;18.91;73.76;99543.34;5115118;28;20044;-48
2021/07/03 05:15:14;;;;;;;11.73;8.43;;;;;;;18.97;73.88;99536.78;5115997;28;20063;-48
2021/07/03 05:17:40;;;;;;;11.05;8.90;;;;;;;19.07;73.56;99540.53;5116201;28;20056;-48
2021/07/03 05:20:07;;;;;;;12.52;9.02;;;;;;;19.18;72.88;99537.22;5114931;28;20043;-48
2021/07/03 05:22:33;;;;;;;9.95;8.60;;;;;;;19.20;72.64;99534.44;5116530;28;20055;-48
2021/07/03 05:24:59;;;;;;;11.95;9.00;;;;;;;19.24;72.31;99541.25;5116513;28;20331;-48
2021/07/03 05:27:25;;;;;;;12.38;8.75;;;;;;;19.26;71.91;99537.53;5115939;28;20072;-48
2021/07/03 05:29:50;;;;;;;10.32;8.35;;;;;;;19.30;72.31;99539.06;5120328;28;20429;-48
2021/07/03 05:32:16;;;;;;;9.80;8.23;;;;;;;19.34;72.18;99543.22;5120620;28;20047;-48
2021/07/03 05:34:42;;;;;;;14.82;8.50;;;;;;;19.50;72.12;99551.03;5120258;28;20357;-48
2021/07/03 05:37:08;;;;;;;12.63;7.60;;;;;;;19.65;71.69;99543.88;5119265;28;20486;-48
2021/07/03 05:39:34;;;;;;;10.75;7.70;;;;;;;19.87;71.38;99545.94;5119618;28;20043;-48
2021/07/03 05:42:00;;;;;;;10.90;7.28;;;;;;;20.23;71.13;99550.56;5120119;28;20124;-48
2021/07/03 05:44:26;;;;;;;12.73;7.68;;;;;;;20.49;70.20;99554.06;5119571;28;20100;-48
2021/07/03 05:46:52;;;;;;;12.57;8.07;;;;;;;20.87;68.59;99545.22;5120343;28;20437;-48
2021/07/03 05:49:18;;;;;;;9.68;7.00;;;;;;;21.26;67.78;99550.44;5120337;28;20048;-48
2021/07/03 05:51:45;;;;;;;9.30;8.23;;;;;;;21.53;66.87;99551.06;5120248;28;20420;-48
2021/07/03 05:54:11;;;;;;;10.07;6.85;;;;;;;21.72;66.49;99542.56;5120249;28;20342;-48
2021/07/03 05:56:37;;;;;;;11.65;7.13;;;;;;;21.97;65.60;99541.56;5120150;28;20057;-48
2021/07/03 05:59:03;;;;;;;11.15;6.93;;;;;;;22.46;64.85;99547.59;5120137;28;20052;-48
2021/07/03 06:01:28;;;;;;;10.00;6.70;;;;;;;22.99;64.01;99550.50;5120375;28;20338;-48
2021/07/03 06:03:54;;;;;;;12.68;7.32;;;;;;;23.46;61.37;99546.63;5119482;28;20058;-49
2021/07/03 06:06:20;;;;;;;9.32;7.13;;;;;;;23.96;60.94;99543.41;5102245;28;20047;-49
2021/07/03 06:08:46;;;;;;;6.60;5.68;;;;;;;24.33;60.07;99546.44;5119654;28;20066;-49
2021/07/03 06:11:13;;;;;;;8.23;6.05;;;;;;;24.76;58.93;99555.25;5119768;28;20171;-49
2021/07/03 06:13:39;;;;;;;8.02;6.30;;;;;;;24.89;57.55;99546.03;5101967;28;20046;-49
2021/07/03 06:16:05;;;;;;;7.05;6.25;;;;;;;25.09;56.75;99549.59;5119504;28;20110;-49
2021/07/03 06:18:31;;;;;;;9.60;6.15;;;;;;;25.25;54.99;99550.91;5118908;28;20067;-49
2021/07/03 06:20:57;;;;;;;8.68;6.15;;;;;;;25.48;55.31;99549.72;5119378;28;20047;-49
2021/07/03 06:23:24;;;;;;;8.57;5.90;;;;;;;25.56;54.70;99555.19;5119672;28;20048;-49
2021/07/03 06:25:50;;;;;;;7.85;6.32;;;;;;;25.67;53.73;99550.69;5119361;28;20043;-49
2021/07/03 06:28:16;;;;;;;6.60;5.47;;;;;;;25.81;53.30;99544.94;5118555;28;20044;-49
2021/07/03 06:30:42;;;;;;;5.70;5.20;;;;;;;25.97;53.00;99539.84;5101436;28;20468;-49
2021/07/03 06:33:07;;;;;;;7.25;6.00;;;;;;;26.03;53.07;99539.28;5119491;28;20048;-49
2021/07/03 06:35:33;;;;;;;10.48;5.95;;;;;;;26.34;52.34;99539.88;5118546;28;20059;-49
2021/07/03 06:37:59;;;;;;;6.63;5.38;;;;;;;26.55;51.52;99541.53;5119059;28;20036;-49
2021/07/03 06:40:25;;;;;;;7.93;5.05;;;;;;;26.71;51.17;99548.97;5117472;28;20051;-49
2021/07/03 06:42:51;;;;;;;7.70;5.50;;;;;;;26.88;50.24;99547.38;5119279;28;20044;-49
2021/07/03 06:45:17;;;;;;;10.50;5.97;;;;;;;26.95;50.94;99548.44;5119254;28;20051;-49
2021/07/03 06:47:42;;;;;;;9.15;4.68;;;;;;;27.19;50.55;99543.38;5118912;28;20044;-49
2021/07/03 06:50:09;;;;;;;6.18;5.35;;;;;;;27.35;50.89;99547.25;5118009;28;20055;-49
2021/07/03 06:52:35;;;;;;;6.75;5.43;;;;;;;27.57;50.52;99544.09;5118881;27;20066;-49
2021/07/03 06:55:01;;;;;;;10.85;5.43;;;;;;;27.69;49.59;99550.94;5119027;28;20081;-49
2021/07/03 06:57:26;;;;;;;5.82;5.20;;;;;;;27.91;48.93;99551.47;5118918;28;20043;-49
2021/07/03 06:59:52;;;;;;;7.32;4.95;;;;;;;28.07;48.44;99546.22;5118946;28;20055;-49
2021/07/03 07:02:19;;;;;;;4.90;4.43;;;;;;;28.05;47.63;99547.41;5118910;28;20139;-49
2021/07/03 07:04:45;;;;;;;5.97;5.28;;;;;;;28.19;47.02;99553.03;5118831;28;20397;-49
2021/07/03 07:07:11;;;;;;;8.02;4.80;;;;;;;28.31;46.97;99550.09;5118530;28;20058;-49
2021/07/03 07:09:36;;;;;;;8.05;4.60;;;;;;;28.34;47.43;99550.63;5118493;28;20036;-49
2021/07/03 07:12:02;;;;;;;8.63;4.70;;;;;;;28.55;46.67;99550.28;5118722;28;20047;-49
2021/07/03 07:14:28;;;;;;;8.15;4.60;;;;;;;28.49;45.82;99552.75;5118338;28;20048;-49
2021/07/03 07:16:54;;;;;;;6.03;5.18;;;;;;;28.48;45.73;99551.91;5118934;27;20092;-49
2021/07/03 07:19:20;;;;;;;6.10;4.93;;;;;;;28.46;45.95;99553.06;5117438;28;20039;-49
2021/07/03 07:21:46;;;;;;;7.68;5.05;;;;;;;28.62;45.08;99562.09;5118504;28;20134;-49
2021/07/03 07:24:12;;;;;;;8.13;4.43;;;;;;;28.57;45.05;99558.22;5117357;28;20473;-49
2021/07/03 07:26:38;;;;;;;7.07;3.92;;;;;;;28.74;45.80;99553.75;5117299;28;20065;-49
2021/07/03 07:29:04;;;;;;;8.88;4.85;;;;;;;28.81;44.43;99554.78;5118145;28;20114;-49
2021/07/03 07:31:31;;;;;;;13.25;5.22;;;;;;;28.75;44.01;99558.94;5117208;28;20112;-49
2021/07/03 07:33:57;;;;;;;5.88;5.28;;;;;;;28.69;43.76;99559.59;5117962;28;20063;-49
2021/07/03 07:36:23;;;;;;;8.38;4.90;;;;;;;28.70;44.33;99552.34;5117586;28;20163;-49
2021/07/03 07:38:48;;;;;;;7.63;4.68;;;;;;;28.83;44.40;99556.31;5117298;28;20062;-49
2021/07/03 07:41:18;;;;;;;5.35;4.18;;;;;;;29.06;43.83;99551.22;5118210;28;20353;-49
2021/07/03 07:43:43;;;;;;;8.68;5.80;;;;;;;29.12;43.58;99552.41;5118078;28;20051;-49
2021/07/03 07:46:10;;;;;;;7.32;5.15;;;;;;;29.04;44.31;99542.44;5117937;28;20117;-49
2021/07/03 07:48:35;;;;;;;8.10;5.20;;;;;;;29.26;42.84;99546.38;5117722;28;20043;-49
2021/07/03 07:51:01;;;;;;;5.95;5.07;;;;;;;29.32;42.20;99553.81;5117955;28;20471;-49
2021/07/03 07:53:28;;;;;;;6.95;5.22;;;;;;;28.91;41.45;99549.25;5117901;28;20058;-49
2021/07/03 07:55:55;;;;;;;13.05;4.78;;;;;;;28.70;42.90;99552.34;5116602;28;20344;-49
2021/07/03 07:58:20;;;;;;;8.13;4.28;;;;;;;28.67;42.23;99548.16;5117510;27;20104;-49
2021/07/03 08:00:46;;;;;;;10.20;4.93;;;;;;;28.82;42.36;99543.81;5117724;28;20048;-49
2021/07/03 08:03:12;;;;;;;7.88;5.13;;;;;;;28.83;42.15;99548.22;5117751;27;20450;-49
2021/07/03 08:05:38;;;;;;;8.40;5.38;;;;;;;28.87;41.67;99535.28;5116417;28;20052;-49
2021/07/03 08:08:06;;;;;;;5.30;4.78;;;;;;;28.82;42.21;99543.81;5117647;28;20039;-49
2021/07/03 08:10:39;;;;;;;7.93;4.93;;;;;;;28.72;41.64;99561.13;5117574;28;20183;-49
2021/07/03 08:13:05;;;;;;;15.32;5.93;;;;;;;28.74;41.24;99554.59;5116613;28;20040;-49
2021/07/03 08:15:31;;;;;;;7.80;5.00;;;;;;;28.76;41.35;99555.28;5117150;28;20099;-49
2021/07/03 08:17:58;;;;;;;4.95;4.45;;;;;;;28.87;42.14;99554.13;5117362;28;20043;-49
2021/07/03 08:20:23;;;;;;;6.75;4.97;;;;;;;28.93;41.30;99545.41;5114367;28;20358;-49
2021/07/03 08:22:50;;;;;;;7.07;4.97;;;;;;;28.82;41.54;99537.59;5104179;28;20059;-49
2021/07/03 08:25:17;;;;;;;7.63;5.03;;;;;;;28.82;42.61;99541.13;5094328;28;20063;-49
2021/07/03 08:27:44;;;;;;;7.53;4.95;;;;;;;28.83;42.60;99552.78;5094973;28;20189;-49
2021/07/03 08:30:10;;;;;;;6.60;5.10;;;;;;;28.77;42.51;99546.19;5096165;28;20047;-49
2021/07/03 08:32:36;;;;;;;6.30;4.50;;;;;;;28.77;42.29;99540.78;5096112;28;20048;-49
2021/07/03 08:35:03;;;;;;;8.05;4.72;;;;;;;28.82;41.97;99541.13;5095984;28;20117;-49
2021/07/03 08:37:30;;;;;;;8.13;4.75;;;;;;;28.93;41.90;99536.47;5105390;28;20035;-49
2021/07/03 08:39:57;;;;;;;5.38;4.60;;;;;;;29.16;41.97;99539.44;5081545;28;20080;-49
2021/07/03 08:42:23;;;;;;;6.85;5.00;;;;;;;29.34;40.39;99521.28;5115721;28;20051;-50
2021/07/03 08:44:49;;;;;;;5.88;5.28;;;;;;;29.36;41.60;99535.44;5115700;28;20410;-50
2021/07/03 08:47:16;;;;;;;5.68;5.03;;;;;;;29.45;41.07;99528.22;5116563;28;20123;-50
2021/07/03 08:49:43;;;;;;;5.97;4.70;;;;;;;29.52;41.12;99531.94;5116900;28;20066;-50
2021/07/03 08:52:09;;;;;;;7.97;4.25;;;;;;;29.62;41.30;99523.72;5116539;28;20471;-50
2021/07/03 08:54:35;;;;;;;6.05;4.40;;;;;;;29.61;40.41;99525.56;5116806;28;20127;-50
2021/07/03 08:57:01;;;;;;;8.48;5.05;;;;;;;29.54;39.76;99530.75;5116732;28;20353;-50
2021/07/03 08:59:29;;;;;;;10.38;4.72;;;;;;;29.65;39.53;99526.91;5116523;28;20341;-50
2021/07/03 09:01:57;;;;;;;5.93;4.35;;;;;;;29.55;40.19;99531.59;5115711;28;20323;-50
2021/07/03 09:04:52;;;;;;;4.95;4.40;;;;;;;29.53;39.10;99518.25;5116056;28;20127;-50
2021/07/03 09:07:19;;;;;;;9.25;4.90;;;;;;;29.58;39.21;99520.47;5111715;28;20054;-50
2021/07/03 09:09:51;;;;;;;7.50;4.28;;;;;;;29.54;39.46;99532.59;5116669;28;20047;-50
2021/07/03 09:12:34;;;;;;;8.05;4.00;;;;;;;29.04;39.20;99528.94;5116612;28;20048;-50
2021/07/03 09:15:10;;;;;;;15.55;4.88;;;;;;;28.96;39.88;99536.16;5115774;28;20075;-49
2021/07/03 09:17:52;;;;;;;11.15;4.57;;;;;;;28.82;40.43;99522.28;5114108;28;20046;-49
2021/07/03 09:20:25;;;;;;;6.18;4.35;;;;;;;28.88;40.27;99528.88;5106943;28;20063;-49
2021/07/03 09:22:50;;;;;;;7.90;3.97;;;;;;;29.11;41.02;99521.88;5111853;28;20050;-50
2021/07/03 09:25:20;;;;;;;5.32;4.75;;;;;;;29.36;39.32;99521.97;5094992;28;20348;-50
2021/07/03 09:27:46;;;;;;;9.93;4.63;;;;;;;29.47;39.54;99521.63;5096100;28;20051;-50
2021/07/03 09:30:14;;;;;;;5.60;4.68;;;;;;;29.35;38.92;99512.19;5095789;28;20056;-50
2021/07/03 09:32:46;;;;;;;5.07;4.28;;;;;;;29.20;39.55;99520.06;5094820;28;20143;-50
2021/07/03 09:35:13;;;;;;;8.25;3.90;;;;;;;29.25;38.75;99519.56;5093386;28;20048;-50
2021/07/03 09:37:38;;;;;;;5.50;4.10;;;;;;;29.25;38.74;99514.16;5077143;28;20083;-50
2021/07/03 09:40:08;;;;;;;6.57;4.10;;;;;;;29.08;38.43;99519.53;5094670;28;20048;-50
2021/07/03 09:42:35;;;;;;;7.03;4.10;;;;;;;28.94;39.08;99509.34;5094737;28;20067;-49
2021/07/03 09:45:01;;;;;;;7.07;3.97;;;;;;;28.79;39.83;99508.28;5095932;28;20058;-50
2021/07/03 09:47:27;;;;;;;5.78;3.47;;;;;;;28.74;39.42;99516.84;5095657;28;20070;-49
2021/07/03 09:50:07;;;;;;;6.28;3.05;;;;;;;28.74;37.20;99518.72;5095920;28;20447;-49
2021/07/03 09:52:34;;;;;;;6.03;3.35;;;;;;;28.77;38.30;99516.53;5095939;28;20078;-49
2021/07/03 09:55:02;;;;;;;5.07;3.90;;;;;;;28.94;38.09;99516.59;5095611;28;20059;-49
2021/07/03 09:57:27;;;;;;;3.75;3.35;;;;;;;28.98;37.58;99508.00;5094912;28;20045;-50
2021/07/03 09:59:53;;;;;;;9.70;3.13;;;;;;;29.02;36.61;99517.50;5094668;28;20361;-50
2021/07/03 10:02:19;;;;;;;7.45;2.75;;;;;;;29.14;36.17;99514.50;5095842;28;20357;-50
2021/07/03 10:04:45;;;;;;;6.28;3.15;;;;;;;29.27;35.09;99522.94;5095488;28;20063;-50
2021/07/03 10:07:17;;;;;;;27.75;13.38;;;;;;;29.04;35.05;99518.16;5094608;28;20353;-50
2021/07/03 10:09:45;;;;;;;;;;;;;;;28.83;36.58;99506.97;5062144;28;20125;-50
2021/07/03 10:12:12;;;;;;;6.50;2.60;;;;;;;29.19;36.76;99513.00;5094839;28;19931;-50
2021/07/03 10:14:39;;;;;;;4.72;3.42;;;;;;;29.32;35.29;99510.66;5078461;28;20059;-50
2021/07/03 10:17:05;;;;;;;3.00;2.70;;;;;;;29.50;36.75;99510.50;5099614;28;20036;-50
2021/07/03 10:19:33;;;;;;;7.65;3.50;;;;;;;29.65;36.57;99515.28;5098232;28;20093;-50
2021/07/03 10:22:12;;;;;;;3.30;2.92;;;;;;;29.58;35.84;99507.81;5064876;28;20040;-50
2021/07/03 10:24:55;;;;;;;5.75;3.67;;;;;;;29.54;35.75;99502.91;5098959;28;20256;-50
2021/07/03 10:27:24;;;;;;;5.95;3.05;;;;;;;29.48;33.86;99499.06;5099374;28;20051;-50
2021/07/03 10:29:52;;;;;;;6.45;3.10;;;;;;;29.53;34.83;99490.44;5099459;28;20044;-50
2021/07/03 10:32:24;;;;;;;5.65;3.15;;;;;;;29.77;34.58;99487.78;5098206;28;20089;-50
2021/07/03 10:34:50;;;;;;;8.57;3.53;;;;;;;29.74;35.42;99490.00;5099451;28;20411;-51
2021/07/03 10:37:29;;;;;;;4.05;3.50;;;;;;;29.74;35.59;99485.44;5064677;28;20052;-50
2021/07/03 10:39:55;;;;;;;6.78;4.07;;;;;;;29.67;35.38;99492.53;5098968;28;20075;-50
2021/07/03 10:42:31;;;;;;;4.72;3.03;;;;;;;29.74;34.97;99496.22;5097629;28;20448;-50
2021/07/03 10:45:10;;;;;;;9.20;5.28;;;;;;;29.75;35.41;99484.41;5098973;28;20052;-51
2021/07/03 10:47:36;;;;;;;6.43;3.97;;;;;;;29.85;35.20;99481.53;5098560;28;20052;-51
2021/07/03 10:50:05;;;;;;;7.20;3.28;;;;;;;29.80;35.91;99490.16;5098433;28;20098;-51
2021/07/03 10:52:39;;;;;;;8.60;3.17;;;;;;;29.88;35.40;99486.59;5094924;28;20158;-51
2021/07/03 10:55:06;;;;;;;5.82;2.90;;;;;;;29.98;34.88;99491.81;5097609;28;20047;-51
2021/07/03 10:57:42;;;;;;;6.28;2.55;;;;;;;30.01;35.17;99496.88;5098318;28;20487;-51
2021/07/03 11:00:11;;;;;;;9.50;3.20;;;;;;;30.05;34.67;99490.09;5098923;28;20422;-51
2021/07/03 11:02:37;;;;;;;4.65;2.95;;;;;;;30.13;34.54;99482.00;5098286;28;20047;-52
2021/07/03 11:05:33;;;;;;;6.55;2.17;;;;;;;30.22;34.31;99477.44;5097106;28;20059;-51
2021/07/03 11:08:08;;;;;;;5.90;3.58;;;;;;;30.09;32.40;99477.94;5081130;28;20066;-51
2021/07/03 11:10:34;;;;;;;4.97;2.70;;;;;;;29.71;33.72;99474.97;5098415;28;20052;-51
2021/07/03 11:13:02;;;;;;;4.68;2.78;;;;;;;29.64;34.67;99475.81;5080761;28;20048;-51
2021/07/03 11:15:28;;;;;;;5.68;2.90;;;;;;;29.72;34.93;99468.56;5097132;28;20040;-51
2021/07/03 11:17:58;;;;;;;12.68;2.70;;;;;;;29.86;34.67;99477.81;5098149;28;20043;-51
2021/07/03 11:20:30;;;;;;;7.10;2.75;;;;;;;30.05;34.63;99469.34;5097352;28;20127;-51
2021/07/03 11:22:58;;;;;;;3.53;2.60;;;;;;;30.22;33.63;99475.56;5097178;28;20123;-51
2021/07/03 11:25:29;;;;;;;7.30;2.65;;;;;;;30.18;32.86;99460.72;5063520;28;20052;-51
2021/07/03 11:28:13;;;;;;;4.45;2.20;;;;;;;30.21;32.65;99473.91;5097784;28;20046;-51
2021/07/03 11:30:44;;;;;;;3.42;2.13;;;;;;;30.02;32.25;99456.19;5097031;28;20036;-51
2021/07/03 11:33:10;;;;;;;3.38;2.05;;;;;;;29.83;33.22;99464.66;5079973;28;20449;-50